• Join FlightAware (Why Join?)
  • Login
  • US Flag GB Flag 
09:16 EDT


 

Airport Tracker/Info


-or-


 

Live Flight TrackerFlight Track Log ✈ FAO854 ✈ 21-Mar-2014 ✈ KPIE - KSBN

Flight Track Log - Related Links

Times and Time Zones

All times are in EDT time to prevent confusion due to time zone crossing. See the FAO854 flight status page for this flight to view local times or setup timezone preferences in your user account.

Time Position Orientation Groundspeed Altitude Reporting Facility
EDT Latitude Longitude Course Direction KTS MPH feet Rate Location/Type
22:23 27.8833 -82.6833 180° South 179 206 800  Level Tampa TRACON
22:24 27.8500 -82.6833 180° South 188 216 2,200 2,040 Climbing Tampa TRACON
22:25 27.8000 -82.7000 196° South 213 245 4,300 1,860 Climbing Tampa TRACON
22:26 27.7833 -82.7833 257° West 284 327 5,900 1,920 Climbing Tampa TRACON
22:30 28.1039 -82.7725 North 356 410 13,600 1,980 Climbing Jacksonville Center
22:31 28.2083 -82.7867 353° North 368 423 15,600 2,100 Climbing Jacksonville Center
22:32 28.3189 -82.8078 350° North 387 445 17,900 1,920 Climbing Jacksonville Center
22:33 28.4275 -82.8289 350° North 393 452 19,500 1,680 Climbing Jacksonville Center
22:34 28.5422 -82.8525 350° North 398 458 21,300 1,740 Climbing Jacksonville Center
22:35 28.6550 -82.8783 349° North 405 466 23,000 1,680 Climbing Jacksonville Center
22:36 28.7844 -82.9044 350° North 418 481 24,700 1,500 Climbing Jacksonville Center
22:37 28.8992 -82.9328 348° North 423 487 26,000 1,500 Climbing Jacksonville Center
22:38 29.0181 -82.9567 350° North 428 493 27,700 1,500 Climbing Jacksonville Center
22:39 29.1350 -82.9853 348° North 428 493 29,000 1,320 Climbing Jacksonville Center
22:40 29.2519 -83.0117 349° North 428 493 30,400 1,080 Climbing Jacksonville Center
22:41 29.3667 -83.0381 349° North 428 493 31,200 720 Climbing Jacksonville Center
22:42 29.4814 -83.0667 348° North 428 493 31,900 300 Climbing Jacksonville Center
22:43 29.6003 -83.0931 349° North 428 493 31,900  Level Jacksonville Center
22:44 29.7172 -83.1197 349° North 428 493 32,000  Climbing Jacksonville Center
22:45 29.8342 -83.1489 348° North 428 493 31,900  Descending Jacksonville Center
22:46 29.9467 -83.1756 348° North 420 483 32,000  Climbing Jacksonville Center
22:47 30.0511 -83.1972 350° North 420 483 32,000  Level Jacksonville Center
22:48 30.1658 -83.2242 349° North 420 483 32,000  Level Jacksonville Center
22:49 30.2786 -83.2486 349° North 420 483 32,000  Level Jacksonville Center
22:50 30.3911 -83.2731 349° North 415 478 32,000 -60 Level Jacksonville Center
22:51 30.5061 -83.3025 348° North 415 478 31,900 -60 Descending Jacksonville Center
22:52 30.6208 -83.3294 349° North 415 478 31,900  Level Jacksonville Center
22:53 30.7333 -83.3567 348° North 415 478 32,000  Climbing Jacksonville Center
22:54 30.8419 -83.3789 350° North 409 471 32,000  Level Jacksonville Center
22:55 30.9525 -83.4061 348° North 409 471 32,000  Level Jacksonville Center
22:56 31.0672 -83.4333 349° North 409 471 32,000  Level Jacksonville Center
22:57 31.1778 -83.4608 348° North 409 471 32,000  Level Jacksonville Center
22:58 31.2925 -83.4858 349° North 409 471 32,000  Level Jacksonville Center
23:00 31.4635 -83.5284 348° North  Level FlightAware Approximate
23:07 32.1973 -83.7049 349° North  Level FlightAware Approximate
23:08 32.3023 -83.7299 349° North  Level FlightAware Approximate
23:09 32.4071 -83.7555 348° North  Level FlightAware Approximate
23:10 32.5118 -83.7813 348° North  Level FlightAware Approximate
23:11 32.6166 -83.8071 348° North  Level FlightAware Approximate
23:12 32.7214 -83.8330 348° North  Level FlightAware Approximate
23:13 32.8261 -83.8589 348° North  Level FlightAware Approximate
23:14 32.9309 -83.8849 348° North  Level FlightAware Approximate
23:15 33.0356 -83.9110 348° North  Level FlightAware Approximate
23:16 33.1404 -83.9371 348° North  Level FlightAware Approximate
23:17 33.2451 -83.9633 348° North  Level FlightAware Approximate
23:18 33.3499 -83.9895 348° North  Level FlightAware Approximate
23:19 33.4546 -84.0158 348° North  Level FlightAware Approximate
23:20 33.5593 -84.0422 348° North  Level FlightAware Approximate
23:21 33.6641 -84.0686 348° North  Level FlightAware Approximate
23:22 33.7688 -84.0952 348° North  Level FlightAware Approximate
23:23 33.8735 -84.1217 348° North  Level FlightAware Approximate
23:24 33.9782 -84.1484 348° North  Level FlightAware Approximate
23:25 34.0836 -84.1667 348° North  Level FlightAware Approximate
23:26 34.1882 -84.1941 348° North  Level FlightAware Approximate
23:27 34.2928 -84.2216 348° North  Level FlightAware Approximate
23:28 34.3973 -84.2491 348° North  Level FlightAware Approximate
23:29 34.5019 -84.2767 348° North  Level FlightAware Approximate
23:30 34.6064 -84.3044 348° North  Level FlightAware Approximate
23:31 34.7110 -84.3321 348° North  Level FlightAware Approximate
23:32 34.8155 -84.3599 348° North  Level FlightAware Approximate
23:33 34.9201 -84.3878 348° North  Level FlightAware Approximate
23:34 35.0246 -84.4157 348° North  Level FlightAware Approximate
23:35 35.1291 -84.4437 348° North  Level FlightAware Approximate
23:36 35.2337 -84.4718 348° North  Level FlightAware Approximate
23:37 35.3382 -84.5000 348° North  Level FlightAware Approximate
23:38 35.4427 -84.5280 348° North  Level FlightAware Approximate
23:39 35.5473 -84.5557 348° North  Level FlightAware Approximate
23:40 35.6519 -84.5835 348° North  Level FlightAware Approximate
23:41 35.7565 -84.6114 348° North  Level FlightAware Approximate
23:42 35.8610 -84.6394 348° North  Level FlightAware Approximate
23:43 35.9656 -84.6674 348° North  Level FlightAware Approximate
23:44 36.0702 -84.6956 348° North  Level FlightAware Approximate
23:45 36.1748 -84.7238 348° North  Level FlightAware Approximate
23:46 36.2793 -84.7520 348° North  Level FlightAware Approximate
23:47 36.3839 -84.7799 348° North  Level FlightAware Approximate
23:48 36.4886 -84.8073 348° North  Level FlightAware Approximate
23:49 36.5933 -84.8348 348° North  Level FlightAware Approximate
23:50 36.6980 -84.8624 348° North  Level FlightAware Approximate
23:51 36.8027 -84.8900 348° North  Level FlightAware Approximate
23:52 36.9074 -84.9177 348° North  Level FlightAware Approximate
23:53 37.0121 -84.9455 348° North  Level FlightAware Approximate
23:54 37.1168 -84.9734 348° North  Level FlightAware Approximate
23:55 37.2214 -85.0014 348° North  Level FlightAware Approximate
23:56 37.3261 -85.0294 348° North  Level FlightAware Approximate
23:57 37.4308 -85.0575 348° North  Level FlightAware Approximate
23:58 37.5354 -85.0857 348° North  Level FlightAware Approximate
23:59 37.6400 -85.1140 348° North  Level FlightAware Approximate
00:00 37.7447 -85.1422 348° North  Level FlightAware Approximate
00:01 37.8493 -85.1705 348° North  Level FlightAware Approximate
00:02 37.9540 -85.1989 348° North  Level FlightAware Approximate
00:03 38.0586 -85.2273 348° North  Level FlightAware Approximate
00:04 38.1632 -85.2559 348° North  Level FlightAware Approximate
00:05 38.2679 -85.2845 348° North  Level FlightAware Approximate
00:06 38.3725 -85.3132 348° North  Level FlightAware Approximate
00:07 38.4771 -85.3419 348° North  Level FlightAware Approximate
00:08 38.5816 -85.3711 347° North  Level FlightAware Approximate
00:09 38.6859 -85.4018 347° North  Level FlightAware Approximate
00:10 38.7902 -85.4327 347° North  Level FlightAware Approximate
00:11 38.8944 -85.4637 347° North  Level FlightAware Approximate
00:12 38.9987 -85.4947 347° North  Level FlightAware Approximate
00:13 39.1029 -85.5258 347° North  Level FlightAware Approximate
00:14 39.2072 -85.5571 347° North  Level FlightAware Approximate
00:15 39.3114 -85.5884 347° North  Level FlightAware Approximate
00:16 39.4161 -85.6165 349° North  Level FlightAware Approximate
00:17 39.5206 -85.6464 348° North  Level FlightAware Approximate
00:18 39.6233 -85.6853 347° North  Level FlightAware Approximate
00:19 39.7276 -85.7165 347° North  Level FlightAware Approximate
00:20 39.8319 -85.7478 347° North  Level FlightAware Approximate
00:21 39.9361 -85.7792 347° North  Level FlightAware Approximate
00:22 40.0412 -85.8039 339° North  Level FlightAware Approximate
00:23 40.1450 -85.8362 349° North  Level FlightAware Approximate
00:24 40.2498 -85.8649 347° North  Level FlightAware Approximate
00:25 40.3541 -85.8962 347° North  Level FlightAware Approximate
00:26 40.4585 -85.9269 347° North  Level FlightAware Approximate
00:27 40.5629 -85.9576 347° North  Level FlightAware Approximate
00:28 40.6674 -85.9883 348° North  Level FlightAware Approximate
00:29 40.7719 -86.0184 346° North  Level FlightAware Approximate
00:30 40.8757 -86.0530 346° North  Level FlightAware Approximate
00:31 40.9764 -86.0921 346° North  Level FlightAware Approximate
00:32 41.0805 -86.1243 349° North  Level FlightAware Approximate
00:33 41.1851 -86.1543 347° North  Level FlightAware Approximate
00:34 41.2894 -86.1864 347° North  Level FlightAware Approximate
00:35 41.3937 -86.2181 347° North  Level FlightAware Approximate
00:36 41.4981 -86.2494 347° North  Level FlightAware Approximate
00:37 41.6023 -86.2809 343° North  Level FlightAware Approximate
00:38 41.7000 -86.3167 323° Northwest  Level FlightAware Approximate
00:39 41.7082 -86.3173 323° Northwest  Level Estimated
00:40 41.7082 -86.3173 323° Northwest  Level Estimated
00:41 41.7082 -86.3173 323° Northwest  Level Estimated
00:42 41.7082 -86.3173 323° Northwest  Level Estimated
00:43 41.7082 -86.3173 323° Northwest  Level Estimated
00:44 41.7082 -86.3173 323° Northwest  Level Estimated
00:45 41.7082 -86.3173 323° Northwest  Level Estimated
00:46 41.7082 -86.3173 323° Northwest  Level Estimated
00:47 41.7082 -86.3173 323° Northwest  Level Estimated
00:48 41.7082 -86.3173 323° Northwest  Level Estimated
00:49 41.7082 -86.3173 323° Northwest  Level Estimated
00:50 41.7082 -86.3173 323° Northwest  Level Estimated
00:51 41.7082 -86.3173 323° Northwest  Level Estimated
00:52 41.7082 -86.3173 323° Northwest  Level Estimated